Time;durP1;ratioP1;P1;durP2;ratioP2;P2;SDS_P1;SDS_P2;PMS_P1;PMS_P2;Temp;Humidity;BMP_temperature;BMP_pressure;BME280_temperature;BME280_humidity;BME280_pressure;Samples;Min_cycle;Max_cycle;Signal;HPM_P1;HPM_P2
2024/03/23 00:00:12;;;;;;;11.50;5.00;;;9.20;1.00;;;;;;5088263;28;20505;-76
2024/03/23 00:02:43;;;;;;;12.90;6.10;;;9.00;1.00;;;;;;5082061;28;20443;-78
2024/03/23 00:05:13;;;;;;;12.13;5.40;;;9.00;1.00;;;;;;5080481;28;20510;-79
2024/03/23 00:07:44;;;;;;;10.67;5.33;;;9.00;1.00;;;;;;5083295;28;20540;-78
2024/03/23 00:10:14;;;;;;;11.60;4.57;;;9.00;1.00;;;;;;5084229;27;20898;-78
2024/03/23 00:12:45;;;;;;;12.03;4.20;;;8.90;1.00;;;;;;5083897;27;20479;-81
2024/03/23 00:15:14;;;;;;;16.53;5.13;;;8.80;1.00;;;;;;5101523;27;20489;-77
2024/03/23 00:17:46;;;;;;;14.03;5.20;;;8.70;1.00;;;;;;5100766;27;20486;-80
2024/03/23 00:20:15;;;;;;;15.67;4.53;;;8.80;1.00;;;;;;5102976;27;20457;-78
2024/03/23 00:22:46;;;;;;;7.47;3.73;;;8.70;1.00;;;;;;5101389;27;21022;-81
2024/03/23 00:25:16;;;;;;;12.40;5.13;;;8.70;1.00;;;;;;5103745;27;20465;-79
2024/03/23 00:27:50;;;;;;;9.60;4.20;;;8.70;1.00;;;;;;5103483;27;22109;-80
2024/03/23 00:30:19;;;;;;;10.50;4.40;;;8.70;1.00;;;;;;5107233;27;20471;-81
2024/03/23 00:32:50;;;;;;;11.27;4.07;;;8.70;1.00;;;;;;5104089;27;21018;-79
2024/03/23 00:35:19;;;;;;;11.53;5.30;;;8.70;1.00;;;;;;5106532;27;20509;-80
2024/03/23 00:37:52;;;;;;;11.70;4.60;;;8.80;1.00;;;;;;5086403;27;20546;-79
2024/03/23 00:40:22;;;;;;;13.83;5.10;;;8.80;1.00;;;;;;5083754;28;20461;-79
2024/03/23 00:42:55;;;;;;;9.30;4.13;;;8.80;1.00;;;;;;5081404;28;20474;-80
2024/03/23 00:45:25;;;;;;;14.57;5.63;;;8.80;1.00;;;;;;5085489;28;20525;-81
2024/03/23 00:47:55;;;;;;;10.63;4.20;;;8.80;1.00;;;;;;5082841;28;20504;-77
2024/03/23 00:50:25;;;;;;;12.80;4.23;;;8.80;1.00;;;;;;5094465;27;21315;-78
2024/03/23 00:52:54;;;;;;;11.33;4.70;;;8.70;1.00;;;;;;5088944;27;20561;-80
2024/03/23 00:55:20;;;;;;;17.47;5.07;;;8.70;1.00;;;;;;5090662;27;20462;-80
2024/03/23 00:57:47;;;;;;;13.93;4.63;;;8.70;1.00;;;;;;5092903;27;20973;-79
2024/03/23 01:00:14;;;;;;;12.40;4.33;;;8.70;1.00;;;;;;5086384;28;20494;-79
2024/03/23 01:02:41;;;;;;;10.27;4.13;;;8.70;1.00;;;;;;5082589;27;20460;-80
2024/03/23 01:05:07;;;;;;;11.87;4.70;;;8.70;1.00;;;;;;5103281;27;20973;-73
2024/03/23 01:07:33;;;;;;;15.30;5.67;;;8.80;1.00;;;;;;5101716;27;20488;-73
2024/03/23 01:10:01;;;;;;;9.40;4.60;;;8.80;1.00;;;;;;5104469;27;20469;-73
2024/03/23 01:12:28;;;;;;;8.63;3.80;;;8.80;1.00;;;;;;5104034;27;20468;-72
2024/03/23 01:14:54;;;;;;;9.70;4.77;;;8.80;1.00;;;;;;5100744;27;20531;-76
2024/03/23 01:17:21;;;;;;;12.93;5.17;;;8.80;1.00;;;;;;5106107;27;20434;-71
2024/03/23 01:19:46;;;;;;;14.57;4.60;;;8.80;1.00;;;;;;5101864;27;20450;-74
2024/03/23 01:22:13;;;;;;;7.10;3.70;;;8.70;1.00;;;;;;5101673;27;20501;-71
2024/03/23 01:24:39;;;;;;;7.83;3.27;;;8.70;1.00;;;;;;5102887;27;20478;-75
2024/03/23 01:27:07;;;;;;;12.53;4.30;;;8.60;1.00;;;;;;5103729;27;20544;-72
2024/03/23 01:29:33;;;;;;;13.27;5.17;;;8.70;1.00;;;;;;5104568;27;20240;-74
2024/03/23 01:32:00;;;;;;;11.07;3.47;;;8.70;1.00;;;;;;5103724;27;20995;-73
2024/03/23 01:34:27;;;;;;;10.40;3.60;;;8.70;1.00;;;;;;5104265;27;21033;-71
2024/03/23 01:36:54;;;;;;;11.87;4.00;;;8.70;1.00;;;;;;5108388;27;20453;-71
2024/03/23 01:39:20;;;;;;;9.77;3.77;;;8.70;1.00;;;;;;5106447;27;20457;-74
2024/03/23 01:41:47;;;;;;;11.30;4.30;;;8.60;1.00;;;;;;5107997;27;20927;-73
2024/03/23 01:44:15;;;;;;;9.03;4.90;;;8.60;1.00;;;;;;5106630;27;20547;-72
2024/03/23 01:46:42;;;;;;;8.93;5.07;;;8.60;1.00;;;;;;5106534;27;20457;-72
2024/03/23 01:49:08;;;;;;;12.77;4.93;;;8.60;1.00;;;;;;5109249;27;20465;-72
2024/03/23 01:51:37;;;;;;;12.67;4.00;;;8.70;1.00;;;;;;5105192;27;20480;-71
2024/03/23 01:54:03;;;;;;;9.07;4.27;;;8.70;1.00;;;;;;5095313;27;21037;-71
2024/03/23 01:56:32;;;;;;;11.13;4.90;;;8.70;1.00;;;;;;5109870;27;20458;-72
2024/03/23 01:58:58;;;;;;;15.13;5.00;;;8.70;1.00;;;;;;5086149;27;20458;-72
2024/03/23 02:01:26;;;;;;;12.60;5.10;;;8.70;1.00;;;;;;5086401;28;20862;-71
2024/03/23 02:03:52;;;;;;;11.33;4.00;;;8.80;1.00;;;;;;5085422;28;20535;-72
2024/03/23 02:06:19;;;;;;;13.27;4.10;;;8.80;1.00;;;;;;5085748;27;20561;-72
2024/03/23 02:08:45;;;;;;;11.30;4.73;;;8.70;1.00;;;;;;5084438;28;21296;-73
2024/03/23 02:11:12;;;;;;;9.27;4.30;;;8.70;1.00;;;;;;5089902;28;20993;-75
2024/03/23 02:13:38;;;;;;;13.20;4.90;;;8.80;1.00;;;;;;5087782;27;20541;-72
2024/03/23 02:16:06;;;;;;;13.93;4.57;;;8.80;1.00;;;;;;5093848;27;20485;-79
2024/03/23 02:18:34;;;;;;;10.87;4.73;;;8.90;1.00;;;;;;5089149;27;20675;-80
2024/03/23 02:21:01;;;;;;;16.13;5.30;;;8.90;1.00;;;;;;5088684;28;20419;-79
2024/03/23 02:23:28;;;;;;;11.87;4.33;;;8.80;1.00;;;;;;5086297;27;20446;-80
2024/03/23 02:25:55;;;;;;;12.63;5.20;;;8.90;1.00;;;;;;5090593;27;21397;-77
2024/03/23 02:28:22;;;;;;;12.00;4.20;;;8.90;1.00;;;;;;5087052;27;20460;-79
2024/03/23 02:30:49;;;;;;;15.73;5.53;;;8.90;1.00;;;;;;5087778;27;20467;-79
2024/03/23 02:33:15;;;;;;;14.40;5.13;;;8.90;1.00;;;;;;5087625;28;20460;-79
2024/03/23 02:35:43;;;;;;;13.50;5.10;;;9.00;1.00;;;;;;5091222;27;20477;-78
2024/03/23 02:38:09;;;;;;;12.57;5.17;;;9.00;1.00;;;;;;5101122;27;21313;-79
2024/03/23 02:40:40;;;;;;;10.27;4.60;;;9.00;1.00;;;;;;5092960;27;20452;-80
2024/03/23 02:43:06;;;;;;;11.83;5.50;;;9.00;1.00;;;;;;5087656;27;20933;-79
2024/03/23 02:45:33;;;;;;;11.93;4.97;;;9.00;1.00;;;;;;5089132;28;20463;-78
2024/03/23 02:48:00;;;;;;;14.90;5.33;;;9.00;1.00;;;;;;5085690;27;20527;-80
2024/03/23 02:50:26;;;;;;;13.43;4.97;;;9.10;1.00;;;;;;5088147;28;20494;-79
2024/03/23 02:52:52;;;;;;;11.07;5.60;;;9.20;1.00;;;;;;5087998;27;20613;-80
2024/03/23 02:55:18;;;;;;;13.03;5.47;;;9.20;1.00;;;;;;5108207;27;20548;-80
2024/03/23 02:57:47;;;;;;;13.13;5.60;;;9.30;1.00;;;;;;5089508;27;20486;-77
2024/03/23 03:00:13;;;;;;;11.10;4.67;;;9.30;1.00;;;;;;5088468;27;20470;-80
2024/03/23 03:02:40;;;;;;;14.67;4.67;;;9.20;1.00;;;;;;5086546;28;20460;-80
2024/03/23 03:05:06;;;;;;;9.23;5.03;;;9.10;1.00;;;;;;5085867;27;20969;-79
2024/03/23 03:07:33;;;;;;;15.03;6.10;;;9.10;1.00;;;;;;5087183;28;20463;-78
2024/03/23 03:09:59;;;;;;;12.43;5.97;;;9.00;1.00;;;;;;5086622;27;20544;-80
2024/03/23 03:12:26;;;;;;;11.10;5.40;;;8.90;1.00;;;;;;5109777;27;21073;-75
2024/03/23 03:14:54;;;;;;;14.83;6.33;;;8.90;1.00;;;;;;5087986;27;20271;-79
2024/03/23 03:17:21;;;;;;;14.83;6.40;;;8.80;1.00;;;;;;5086729;28;20504;-79
2024/03/23 03:19:47;;;;;;;15.40;6.20;;;8.80;1.00;;;;;;5087997;28;20557;-80
2024/03/23 03:22:13;;;;;;;13.00;5.53;;;8.70;1.00;;;;;;5089238;28;20463;-78
2024/03/23 03:24:39;;;;;;;17.10;5.40;;;8.70;1.00;;;;;;5080825;27;20566;-73
2024/03/23 03:27:06;;;;;;;17.57;6.73;;;8.70;1.00;;;;;;5086621;28;20545;-73
2024/03/23 03:29:35;;;;;;;14.37;5.73;;;8.70;1.00;;;;;;5087791;28;20932;-73
2024/03/23 03:32:04;;;;;;;16.47;6.97;;;8.70;1.00;;;;;;5085306;27;20459;-76
2024/03/23 03:34:30;;;;;;;9.30;5.70;;;8.70;1.00;;;;;;5081902;28;20606;-72
2024/03/23 03:36:57;;;;;;;12.33;5.60;;;8.70;1.00;;;;;;5096018;27;23051;-73
2024/03/23 03:39:23;;;;;;;10.73;5.13;;;8.70;1.00;;;;;;5097271;27;20523;-74
2024/03/23 03:41:52;;;;;;;14.53;5.70;;;8.70;1.00;;;;;;5088777;27;20575;-74
2024/03/23 03:44:18;;;;;;;10.83;4.70;;;8.70;1.00;;;;;;5087035;27;20512;-74
2024/03/23 03:46:45;;;;;;;12.60;5.37;;;8.80;1.00;;;;;;5084952;27;20467;-74
2024/03/23 03:49:12;;;;;;;19.43;7.70;;;8.70;1.00;;;;;;5086441;28;21491;-75
2024/03/23 03:51:39;;;;;;;22.20;6.53;;;8.70;1.00;;;;;;5079445;28;21040;-74
2024/03/23 03:54:06;;;;;;;13.53;5.50;;;8.70;1.00;;;;;;5095834;27;20458;-73
2024/03/23 03:56:33;;;;;;;13.27;6.17;;;8.70;1.00;;;;;;5086586;28;20879;-74
2024/03/23 03:58:58;;;;;;;13.13;5.67;;;8.70;1.00;;;;;;5086328;28;21330;-74
2024/03/23 04:01:25;;;;;;;12.73;6.83;;;8.50;1.00;;;;;;5101373;27;20503;-73
2024/03/23 04:03:51;;;;;;;13.87;4.50;;;8.40;1.00;;;;;;5104945;27;20837;-74
2024/03/23 04:06:23;;;;;;;11.17;4.93;;;8.30;1.00;;;;;;5107416;27;20454;-73
2024/03/23 04:08:50;;;;;;;15.93;5.50;;;8.20;1.00;;;;;;5105452;27;20477;-73
2024/03/23 04:11:16;;;;;;;7.50;4.20;;;8.10;1.00;;;;;;5104828;27;20501;-74
2024/03/23 04:13:43;;;;;;;10.80;4.87;;;8.10;1.00;;;;;;5103706;27;20599;-74
2024/03/23 04:16:09;;;;;;;10.77;5.00;;;8.10;1.00;;;;;;5106558;27;20486;-75
2024/03/23 04:18:36;;;;;;;13.30;5.60;;;8.10;1.00;;;;;;5085884;27;20554;-74
2024/03/23 04:21:02;;;;;;;8.40;4.60;;;8.10;1.00;;;;;;5087012;27;20489;-74
2024/03/23 04:23:31;;;;;;;9.47;4.70;;;8.10;1.00;;;;;;5088398;27;20488;-74
2024/03/23 04:26:03;;;;;;;12.57;5.10;;;8.00;1.00;;;;;;5082306;28;20486;-74
2024/03/23 04:28:30;;;;;;;13.80;4.03;;;8.00;1.00;;;;;;5086004;27;20553;-74
2024/03/23 04:30:56;;;;;;;10.30;4.93;;;8.00;1.00;;;;;;5082177;27;21602;-74
2024/03/23 04:33:23;;;;;;;8.30;3.60;;;7.90;1.00;;;;;;5085145;28;20465;-73
2024/03/23 04:35:49;;;;;;;7.13;3.57;;;7.80;1.00;;;;;;5100862;27;20455;-71
2024/03/23 04:38:16;;;;;;;12.67;3.63;;;7.70;1.00;;;;;;5103835;27;20530;-71
2024/03/23 04:40:43;;;;;;;6.57;3.13;;;7.70;1.00;;;;;;5106141;27;20528;-74
2024/03/23 04:43:10;;;;;;;8.30;3.87;;;7.70;1.00;;;;;;5080042;27;20462;-70
2024/03/23 04:45:37;;;;;;;8.33;3.00;;;7.70;1.00;;;;;;5085340;28;21045;-73
2024/03/23 04:48:04;;;;;;;6.85;2.33;;;7.70;1.00;;;;;;5085099;27;20477;-71
2024/03/23 04:50:31;;;;;;;6.38;2.55;;;7.70;1.00;;;;;;5082062;28;20244;-72
2024/03/23 04:52:58;;;;;;;7.83;3.00;;;7.70;1.00;;;;;;5082017;28;20329;-70
2024/03/23 04:55:25;;;;;;;7.77;2.90;;;7.70;1.00;;;;;;5085462;28;20479;-71
2024/03/23 04:57:53;;;;;;;8.80;3.07;;;7.70;1.00;;;;;;5089716;27;21307;-71
2024/03/23 05:00:20;;;;;;;9.23;3.13;;;7.70;1.00;;;;;;5084902;28;20450;-72
2024/03/23 05:02:46;;;;;;;6.23;3.30;;;7.70;1.00;;;;;;5083126;27;20530;-71
2024/03/23 05:05:13;;;;;;;11.27;3.73;;;7.70;1.00;;;;;;5083840;28;20482;-71
2024/03/23 05:07:40;;;;;;;8.30;3.50;;;7.80;1.00;;;;;;5084682;27;20465;-71
2024/03/23 05:10:10;;;;;;;8.18;3.50;;;7.80;1.00;;;;;;5087806;28;20473;-71
2024/03/23 05:12:36;;;;;;;9.40;4.57;;;7.80;1.00;;;;;;5087791;28;20231;-70
2024/03/23 05:15:04;;;;;;;4.60;2.30;;;7.70;1.00;;;;;;5088206;28;20462;-71
2024/03/23 05:17:31;;;;;;;7.50;3.10;;;7.60;1.00;;;;;;5096476;27;20552;-70
2024/03/23 05:19:58;;;;;;;5.47;2.70;;;7.50;1.00;;;;;;5088465;27;20457;-71
2024/03/23 05:22:24;;;;;;;10.97;2.80;;;7.50;1.00;;;;;;5087474;28;20567;-72
2024/03/23 05:24:51;;;;;;;4.90;2.90;;;7.40;1.00;;;;;;5086623;28;20454;-71
2024/03/23 05:27:17;;;;;;;6.03;3.20;;;7.40;1.00;;;;;;5095720;27;20502;-71
2024/03/23 05:29:43;;;;;;;5.13;2.97;;;7.50;1.00;;;;;;5110208;27;20541;-71
2024/03/23 05:32:11;;;;;;;6.17;2.57;;;7.50;1.00;;;;;;5105757;27;21226;-72
2024/03/23 05:34:38;;;;;;;8.97;3.53;;;7.50;1.00;;;;;;5109228;27;21162;-70
2024/03/23 05:37:04;;;;;;;5.33;3.53;;;7.60;1.00;;;;;;5108855;27;20471;-70
2024/03/23 05:39:31;;;;;;;6.83;2.87;;;7.60;1.00;;;;;;5091636;27;20886;-71
2024/03/23 05:41:57;;;;;;;6.37;2.83;;;7.60;1.00;;;;;;5089830;27;20561;-70
2024/03/23 05:44:24;;;;;;;10.80;2.80;;;7.70;1.00;;;;;;5089798;27;20459;-72
2024/03/23 05:46:50;;;;;;;6.00;3.07;;;7.60;1.00;;;;;;5094118;27;20557;-71
2024/03/23 05:49:18;;;;;;;9.60;3.47;;;7.60;1.00;;;;;;5088323;27;20446;-71
2024/03/23 05:51:44;;;;;;;6.87;3.17;;;7.60;1.00;;;;;;5089178;27;20486;-74
2024/03/23 05:54:11;;;;;;;4.77;2.77;;;7.60;1.00;;;;;;5084651;28;20537;-70
2024/03/23 05:56:37;;;;;;;6.07;2.70;;;7.50;1.00;;;;;;5085301;27;20981;-71
2024/03/23 05:59:04;;;;;;;6.80;2.73;;;7.50;1.00;;;;;;5098447;27;20444;-74
2024/03/23 06:01:32;;;;;;;7.20;2.63;;;7.40;1.00;;;;;;5090391;27;20956;-72
2024/03/23 06:04:01;;;;;;;9.00;3.80;;;7.50;1.00;;;;;;5084242;27;20448;-71
2024/03/23 06:06:30;;;;;;;6.40;2.97;;;7.40;1.00;;;;;;5088374;28;20575;-72
2024/03/23 06:08:57;;;;;;;8.90;3.40;;;7.50;1.00;;;;;;5087804;28;20463;-72
2024/03/23 06:11:23;;;;;;;7.00;3.27;;;7.50;1.00;;;;;;5085777;28;20951;-72
2024/03/23 06:13:50;;;;;;;7.80;3.90;;;7.50;1.00;;;;;;5089139;27;20459;-72
2024/03/23 06:16:16;;;;;;;7.00;3.57;;;7.60;1.00;;;;;;5085932;28;20472;-72
2024/03/23 06:18:43;;;;;;;7.70;3.97;;;7.70;1.00;;;;;;5096829;27;20821;-71
2024/03/23 06:21:13;;;;;;;5.53;3.83;;;7.80;1.00;;;;;;5085187;28;20462;-70
2024/03/23 06:23:42;;;;;;;6.83;3.73;;;7.80;1.00;;;;;;5104081;27;20477;-73
2024/03/23 06:26:08;;;;;;;7.77;4.30;;;7.90;1.00;;;;;;5108544;27;20580;-72
2024/03/23 06:28:35;;;;;;;10.47;4.27;;;8.00;1.00;;;;;;5109988;27;20466;-72
2024/03/23 06:31:02;;;;;;;6.80;3.67;;;8.10;1.00;;;;;;5090160;28;20451;-73
2024/03/23 06:33:29;;;;;;;7.17;4.50;;;8.10;1.00;;;;;;5090531;27;20505;-73
2024/03/23 06:35:55;;;;;;;6.67;3.83;;;8.10;1.00;;;;;;5086831;27;20567;-73
2024/03/23 06:38:22;;;;;;;6.10;3.83;;;8.20;1.00;;;;;;5087240;28;20565;-72
2024/03/23 06:40:50;;;;;;;12.00;4.87;;;8.20;1.00;;;;;;5088055;27;20592;-72
2024/03/23 06:43:17;;;;;;;5.23;3.20;;;8.20;1.00;;;;;;5107537;27;20946;-70
2024/03/23 06:45:43;;;;;;;7.03;4.47;;;8.20;1.00;;;;;;5110431;27;20486;-74
2024/03/23 06:48:10;;;;;;;9.00;4.18;;;8.20;1.00;;;;;;5109451;27;21067;-72
2024/03/23 06:50:36;;;;;;;11.00;4.30;;;8.20;1.00;;;;;;5105507;27;20294;-72
2024/03/23 06:53:05;;;;;;;8.60;4.33;;;8.30;1.00;;;;;;5109953;27;20548;-73
2024/03/23 06:55:31;;;;;;;9.50;4.20;;;8.40;1.00;;;;;;5091078;28;20557;-72
2024/03/23 06:58:00;;;;;;;7.60;4.17;;;8.40;1.00;;;;;;5106326;27;20442;-73
2024/03/23 07:00:26;;;;;;;8.00;3.23;;;8.40;1.00;;;;;;5107427;27;20458;-73
2024/03/23 07:02:53;;;;;;;9.00;4.47;;;8.50;1.00;;;;;;5106765;27;20466;-72
2024/03/23 07:05:19;;;;;;;7.83;3.43;;;8.50;1.00;;;;;;5085002;28;20470;-73
2024/03/23 07:07:48;;;;;;;8.30;4.90;;;8.50;1.00;;;;;;5103351;27;20449;-74
2024/03/23 07:10:15;;;;;;;12.53;6.23;;;8.50;1.00;;;;;;5093736;27;20508;-74
2024/03/23 07:12:42;;;;;;;14.20;5.40;;;8.60;1.00;;;;;;5088510;28;20543;-74
2024/03/23 07:15:11;;;;;;;7.97;5.50;;;8.60;1.00;;;;;;5087654;28;20501;-72
2024/03/23 07:17:38;;;;;;;9.00;3.67;;;8.60;1.00;;;;;;5088153;27;20529;-73
2024/03/23 07:20:04;;;;;;;8.27;4.03;;;8.50;1.00;;;;;;5086541;27;20443;-72
2024/03/23 07:22:33;;;;;;;10.07;3.67;;;8.50;1.00;;;;;;5085412;28;20535;-74
2024/03/23 07:25:01;;;;;;;5.30;3.70;;;8.40;1.00;;;;;;5088877;28;20502;-75
2024/03/23 07:27:28;;;;;;;9.27;3.40;;;8.40;1.00;;;;;;5097503;27;20532;-73
2024/03/23 07:29:56;;;;;;;7.30;3.20;;;8.30;1.00;;;;;;5086424;27;20494;-72
2024/03/23 07:32:23;;;;;;;9.73;4.30;;;8.30;1.00;;;;;;5083641;28;21198;-74
2024/03/23 07:34:50;;;;;;;6.20;3.77;;;8.30;1.00;;;;;;5095164;28;20492;-76
2024/03/23 07:37:16;;;;;;;6.30;4.33;;;8.30;1.00;;;;;;5107725;27;21025;-76
2024/03/23 07:39:43;;;;;;;10.50;3.27;;;8.40;1.00;;;;;;5104379;27;20474;-75
2024/03/23 07:42:09;;;;;;;6.97;3.90;;;8.50;1.00;;;;;;5106364;27;20470;-73
2024/03/23 07:44:36;;;;;;;5.63;3.30;;;8.50;1.00;;;;;;5086838;27;21001;-73
2024/03/23 07:47:02;;;;;;;5.30;3.40;;;8.60;1.00;;;;;;5088194;27;21218;-74
2024/03/23 07:49:30;;;;;;;5.83;3.10;;;8.60;1.00;;;;;;5082015;28;20471;-74
2024/03/23 07:51:56;;;;;;;7.77;3.20;;;8.60;1.00;;;;;;5091536;27;20452;-74
2024/03/23 07:54:23;;;;;;;5.93;3.40;;;8.60;1.00;;;;;;5089844;27;20470;-75
2024/03/23 07:56:49;;;;;;;8.10;4.50;;;8.60;1.00;;;;;;5085862;28;21189;-73
2024/03/23 07:59:16;;;;;;;6.47;3.63;;;8.60;1.00;;;;;;5086790;27;20478;-74
2024/03/23 08:01:42;;;;;;;7.07;3.83;;;8.60;1.00;;;;;;5107895;27;20458;-75
2024/03/23 08:04:09;;;;;;;5.70;3.13;;;8.50;1.00;;;;;;5107908;27;20833;-74
2024/03/23 08:06:38;;;;;;;5.70;3.83;;;8.50;1.00;;;;;;5088124;27;20438;-73
2024/03/23 08:09:05;;;;;;;6.90;3.60;;;8.50;1.00;;;;;;5107212;27;20458;-75
2024/03/23 08:11:34;;;;;;;6.23;3.33;;;8.40;1.00;;;;;;5092211;27;20489;-77
2024/03/23 08:14:02;;;;;;;7.17;3.40;;;8.30;1.00;;;;;;5088125;28;20570;-72
2024/03/23 08:16:28;;;;;;;5.30;2.67;;;8.30;1.00;;;;;;5090957;27;20465;-74
2024/03/23 08:18:56;;;;;;;7.43;3.43;;;8.30;1.00;;;;;;5084024;27;20585;-77
2024/03/23 08:21:22;;;;;;;3.60;2.37;;;8.20;1.00;;;;;;5085249;27;20458;-74
2024/03/23 08:23:52;;;;;;;8.70;2.67;;;8.20;1.00;;;;;;5088539;27;20510;-74
2024/03/23 08:26:19;;;;;;;6.13;3.25;;;8.20;1.00;;;;;;5092906;27;21014;-74
2024/03/23 08:28:46;;;;;;;5.30;3.17;;;8.20;1.00;;;;;;5081798;28;20714;-73
2024/03/23 08:31:12;;;;;;;7.93;4.40;;;8.10;1.00;;;;;;5087174;27;20454;-72
2024/03/23 08:33:40;;;;;;;3.20;2.53;;;8.20;1.00;;;;;;5089230;27;21019;-75
2024/03/23 08:36:07;;;;;;;4.97;3.53;;;8.20;1.00;;;;;;5086777;27;20904;-74
2024/03/23 08:38:34;;;;;;;8.43;4.60;;;8.00;1.00;;;;;;5089821;28;20988;-74
2024/03/23 08:41:03;;;;;;;6.90;3.27;;;8.00;1.00;;;;;;5089169;27;20441;-74
2024/03/23 08:43:31;;;;;;;6.40;2.83;;;7.90;1.00;;;;;;5097690;27;20484;-75
2024/03/23 08:46:04;;;;;;;3.88;2.72;;;7.90;1.00;;;;;;5085928;27;20475;-74
2024/03/23 08:48:31;;;;;;;3.50;2.47;;;7.90;1.00;;;;;;5081808;28;21127;-73
2024/03/23 08:51:01;;;;;;;5.43;2.70;;;7.80;1.00;;;;;;5086555;28;20930;-74
2024/03/23 08:53:29;;;;;;;6.23;3.30;;;7.80;1.00;;;;;;5084803;28;20484;-73
2024/03/23 08:55:55;;;;;;;5.68;3.45;;;7.80;1.00;;;;;;5086136;27;21010;-74
2024/03/23 08:58:25;;;;;;;5.43;3.20;;;7.70;1.00;;;;;;5083761;27;20238;-72
2024/03/23 09:00:51;;;;;;;4.90;3.30;;;7.70;1.00;;;;;;5082590;28;20235;-72
2024/03/23 09:03:18;;;;;;;6.67;2.83;;;7.70;1.00;;;;;;5098469;27;20475;-77
2024/03/23 09:05:44;;;;;;;4.90;2.70;;;7.60;1.00;;;;;;5098028;27;20455;-72
2024/03/23 09:08:11;;;;;;;4.17;3.30;;;7.50;1.00;;;;;;5099470;27;20236;-75
2024/03/23 09:10:39;;;;;;;7.53;3.27;;;7.50;1.00;;;;;;5084407;27;20519;-73
2024/03/23 09:13:06;;;;;;;6.63;3.30;;;7.40;1.00;;;;;;5086987;27;20461;-76
2024/03/23 09:15:36;;;;;;;6.90;3.20;;;7.30;1.00;;;;;;5083133;27;20866;-74
2024/03/23 09:18:03;;;;;;;5.45;2.95;;;7.20;1.00;;;;;;5088410;27;20723;-75
2024/03/23 09:20:29;;;;;;;5.37;3.20;;;7.20;1.00;;;;;;5086792;27;20264;-75
2024/03/23 09:22:56;;;;;;;5.80;2.42;;;7.10;1.00;;;;;;5095352;27;20464;-75
2024/03/23 09:25:22;;;;;;;7.10;3.83;;;6.80;1.00;;;;;;5096413;27;20320;-74
2024/03/23 09:27:49;;;;;;;3.60;2.65;;;6.70;1.00;;;;;;5087773;27;20244;-73
2024/03/23 09:30:15;;;;;;;6.53;2.55;;;6.70;1.00;;;;;;5087207;27;20749;-76
2024/03/23 09:32:45;;;;;;;9.00;2.80;;;6.60;1.00;;;;;;5083974;28;20390;-77
2024/03/23 09:35:11;;;;;;;6.82;2.95;;;6.50;1.00;;;;;;5087327;28;20524;-75
2024/03/23 09:37:39;;;;;;;5.82;3.10;;;6.50;1.00;;;;;;5085335;28;20337;-75
2024/03/23 09:40:09;;;;;;;7.40;3.15;;;6.60;1.00;;;;;;5086783;28;20279;-73
2024/03/23 09:42:36;;;;;;;3.95;3.17;;;6.60;1.00;;;;;;5086214;28;20992;-75
2024/03/23 09:45:02;;;;;;;4.15;2.40;;;6.60;1.00;;;;;;5103010;27;21073;-74
2024/03/23 09:47:30;;;;;;;4.55;2.50;;;6.60;1.00;;;;;;5097850;27;20245;-75
2024/03/23 09:50:00;;;;;;;6.87;3.03;;;6.60;1.00;;;;;;5079711;27;20747;-74
2024/03/23 09:52:27;;;;;;;3.35;2.55;;;6.60;1.00;;;;;;5085624;28;20512;-75
2024/03/23 09:54:53;;;;;;;5.28;2.28;;;6.60;1.00;;;;;;5101765;27;20240;-75
2024/03/23 09:57:20;;;;;;;4.97;2.33;;;6.60;1.00;;;;;;5087947;28;20242;-75
2024/03/23 09:59:46;;;;;;;4.15;2.30;;;6.60;1.00;;;;;;5086500;27;21343;-75
2024/03/23 10:02:16;;;;;;;7.07;2.70;;;6.50;1.00;;;;;;5097757;27;20355;-75
2024/03/23 10:04:44;;;;;;;5.50;2.22;;;6.30;1.00;;;;;;5104383;27;21059;-78
2024/03/23 10:07:16;;;;;;;8.63;2.53;;;6.10;1.00;;;;;;5097054;27;21071;-79
2024/03/23 10:09:43;;;;;;;3.80;2.75;;;6.00;1.00;;;;;;5088078;27;20340;-77
2024/03/23 10:12:12;;;;;;;5.15;2.42;;;5.90;1.00;;;;;;5103468;27;20239;-76
2024/03/23 10:14:38;;;;;;;5.20;2.58;;;5.70;1.00;;;;;;5107297;27;20248;-76
2024/03/23 10:17:17;;;;;;;4.50;3.15;;;5.70;1.00;;;;;;5107841;27;20241;-77
2024/03/23 10:19:43;;;;;;;5.45;2.55;;;5.70;1.00;;;;;;5113927;27;20327;-77
2024/03/23 10:22:15;;;;;;;5.55;2.30;;;5.70;1.00;;;;;;5110563;27;21249;-75
2024/03/23 10:24:43;;;;;;;5.47;2.72;;;5.70;1.00;;;;;;5112906;27;20228;-76
2024/03/23 10:27:10;;;;;;;4.82;2.10;;;5.70;1.00;;;;;;5106650;27;20737;-76
2024/03/23 10:29:35;;;;;;;5.60;2.03;;;5.60;1.00;;;;;;5106990;27;20964;-76
2024/03/23 10:32:12;;;;;;;5.23;2.53;;;5.60;1.00;;;;;;5101475;27;20232;-75
2024/03/23 10:34:39;;;;;;;4.10;2.15;;;5.40;1.00;;;;;;5106798;27;20446;-75
2024/03/23 10:37:07;;;;;;;7.97;2.80;;;5.40;1.00;;;;;;5109875;27;20244;-77
2024/03/23 10:39:34;;;;;;;5.45;2.72;;;5.30;1.00;;;;;;5110854;27;20239;-75
2024/03/23 10:42:12;;;;;;;4.78;2.50;;;5.40;1.00;;;;;;5110573;27;20305;-76
2024/03/23 10:44:38;;;;;;;5.63;2.65;;;5.50;1.00;;;;;;5110218;27;20232;-75
2024/03/23 10:47:06;;;;;;;5.43;3.53;;;5.60;1.00;;;;;;5107433;27;20246;-76
2024/03/23 10:49:33;;;;;;;10.73;4.10;;;5.60;1.00;;;;;;5082975;28;20222;-76
2024/03/23 10:52:01;;;;;;;4.47;3.13;;;5.70;1.00;;;;;;5086024;28;20277;-77
2024/03/23 10:54:31;;;;;;;7.13;3.40;;;5.80;1.00;;;;;;5087084;28;20732;-74
2024/03/23 10:57:01;;;;;;;7.07;2.55;;;5.90;1.00;;;;;;5089886;28;20240;-77
2024/03/23 10:59:31;;;;;;;6.57;3.17;;;6.00;1.00;;;;;;5088734;28;20233;-75
2024/03/23 11:01:59;;;;;;;7.53;3.72;;;6.00;1.00;;;;;;5083883;28;20722;-74
2024/03/23 11:04:32;;;;;;;4.65;2.30;;;6.10;1.00;;;;;;5086567;28;20235;-75
2024/03/23 11:07:00;;;;;;;7.25;3.97;;;6.20;1.00;;;;;;5085816;27;20785;-76
2024/03/23 11:09:44;;;;;;;5.68;3.00;;;6.30;1.00;;;;;;5087302;27;20307;-74
2024/03/23 11:12:32;;;;;;;6.50;3.15;;;6.30;1.00;;;;;;5088651;27;20305;-74
2024/03/23 11:15:02;;;;;;;6.20;4.03;;;6.40;1.00;;;;;;5089573;28;20241;-75
2024/03/23 11:17:29;;;;;;;7.15;2.88;;;6.50;1.00;;;;;;5089454;28;20282;-76
2024/03/23 11:19:59;;;;;;;5.28;2.83;;;6.40;1.00;;;;;;5091941;27;21006;-75
2024/03/23 11:22:46;;;;;;;11.43;4.40;;;6.40;1.00;;;;;;5111699;27;20388;-75
2024/03/23 11:25:20;;;;;;;5.18;2.35;;;6.40;1.00;;;;;;5084990;28;20240;-74
2024/03/23 11:27:47;;;;;;;6.38;3.22;;;6.50;1.00;;;;;;5090387;27;20307;-76
2024/03/23 11:30:17;;;;;;;5.53;2.60;;;6.50;1.00;;;;;;5087080;27;20316;-76
2024/03/23 11:32:45;;;;;;;8.38;3.33;;;6.60;1.00;;;;;;5087377;28;20537;-74
2024/03/23 11:35:24;;;;;;;7.45;3.15;;;6.80;1.00;;;;;;5090822;28;20245;-76
2024/03/23 11:38:06;;;;;;;7.50;3.20;;;6.90;1.00;;;;;;5090123;28;20242;-75
2024/03/23 11:40:32;;;;;;;6.63;4.13;;;7.00;1.00;;;;;;5096932;27;22488;-74
2024/03/23 11:43:00;;;;;;;10.50;4.30;;;7.00;1.00;;;;;;5086872;27;21015;-74
2024/03/23 11:45:28;;;;;;;4.55;3.28;;;7.00;1.00;;;;;;5089233;27;20450;-75
2024/03/23 11:48:07;;;;;;;5.00;3.97;;;7.10;1.00;;;;;;5097557;27;20231;-75
2024/03/23 11:50:33;;;;;;;10.90;3.70;;;7.20;1.00;;;;;;5086677;28;20910;-74
2024/03/23 11:53:14;;;;;;;4.50;3.50;;;7.20;1.00;;;;;;5083704;28;20472;-74
2024/03/23 11:55:47;;;;;;;7.57;3.75;;;7.40;1.00;;;;;;5083364;28;20330;-74
2024/03/23 11:58:15;;;;;;;7.17;2.77;;;7.50;1.00;;;;;;5099935;27;20318;-73
2024/03/23 12:00:49;;;;;;;7.43;3.30;;;7.60;1.00;;;;;;5085172;27;20449;-74
2024/03/23 12:03:17;;;;;;;3.83;2.60;;;7.50;1.00;;;;;;5096309;27;20495;-74
2024/03/23 12:05:49;;;;;;;8.27;3.70;;;7.40;1.00;;;;;;5092287;27;20450;-74
2024/03/23 12:08:21;;;;;;;7.17;3.00;;;7.50;1.00;;;;;;5111690;27;20957;-72
2024/03/23 12:10:49;;;;;;;7.73;3.13;;;7.40;1.00;;;;;;5089045;27;20480;-72
2024/03/23 12:13:21;;;;;;;12.63;8.93;;;7.40;1.00;;;;;;5085325;28;20480;-73
2024/03/23 12:15:51;;;;;;;7.78;3.58;;;7.30;1.00;;;;;;5087436;27;20327;-74
2024/03/23 12:18:18;;;;;;;7.90;4.63;;;7.30;1.00;;;;;;5087073;27;20241;-75
2024/03/23 12:20:44;;;;;;;4.90;3.13;;;7.30;1.00;;;;;;5103716;27;20456;-74
2024/03/23 12:23:13;;;;;;;4.80;3.13;;;7.20;1.00;;;;;;5104453;27;20946;-72
2024/03/23 12:25:39;;;;;;;6.57;2.90;;;7.10;1.00;;;;;;5105560;27;20447;-74
2024/03/23 12:28:07;;;;;;;9.70;2.92;;;7.00;1.00;;;;;;5106907;27;20234;-74
2024/03/23 12:30:34;;;;;;;6.63;2.53;;;7.00;1.00;;;;;;5088616;28;20290;-74
2024/03/23 12:33:04;;;;;;;5.53;3.10;;;7.00;1.00;;;;;;5088436;28;20459;-77
2024/03/23 12:35:30;;;;;;;5.53;2.90;;;7.10;1.00;;;;;;5085159;28;20666;-74
2024/03/23 12:37:57;;;;;;;6.20;3.23;;;7.30;1.00;;;;;;5085077;28;20298;-73
2024/03/23 12:40:23;;;;;;;7.20;2.73;;;7.60;1.00;;;;;;5084736;28;20532;-74
2024/03/23 12:42:50;;;;;;;7.47;3.40;;;7.90;1.00;;;;;;5081433;27;20477;-73
2024/03/23 12:45:16;;;;;;;5.20;2.40;;;8.30;1.00;;;;;;5099515;27;20514;-73
2024/03/23 12:47:43;;;;;;;3.70;2.43;;;8.50;1.00;;;;;;5110301;27;20464;-73
2024/03/23 12:50:11;;;;;;;6.23;2.93;;;8.40;1.00;;;;;;5092369;27;20551;-74
2024/03/23 12:52:38;;;;;;;5.93;2.40;;;8.30;1.00;;;;;;5082234;28;20486;-74
2024/03/23 12:55:05;;;;;;;4.60;2.50;;;8.30;1.00;;;;;;5088287;28;20849;-73
2024/03/23 12:57:33;;;;;;;11.57;3.30;;;8.20;1.00;;;;;;5085267;28;20264;-73
2024/03/23 13:00:00;;;;;;;6.57;2.87;;;8.10;1.00;;;;;;5086496;28;20447;-73
2024/03/23 13:02:27;;;;;;;4.27;2.53;;;8.20;1.00;;;;;;5083446;28;20494;-74
2024/03/23 13:04:53;;;;;;;10.43;3.83;;;8.30;1.00;;;;;;5084198;28;20486;-74